Time;durP1;ratioP1;P1;durP2;ratioP2;P2;SDS_P1;SDS_P2;PMS_P1;PMS_P2;Temp;Humidity;BMP_temperature;BMP_pressure;BME280_temperature;BME280_humidity;BME280_pressure;Samples;Min_cycle;Max_cycle;Signal;HPM_P1;HPM_P2
2023/05/18 00:01:29;;;;;;;4.72;1.45;;;16.90;50.90;;;;;;5979687;29;20483;-73
2023/05/18 00:04:37;;;;;;;4.13;1.70;;;16.90;51.00;;;;;;5979879;29;20026;-74
2023/05/18 00:07:45;;;;;;;2.35;1.50;;;16.90;51.00;;;;;;5979676;29;20042;-73
2023/05/18 00:10:55;;;;;;;7.93;2.15;;;16.90;51.10;;;;;;5965224;29;20160;-76
2023/05/18 00:14:08;;;;;;;6.15;1.95;;;16.90;51.10;;;;;;5981086;29;20083;-73
2023/05/18 00:17:19;;;;;;;9.38;1.88;;;16.90;51.20;;;;;;5965197;29;20046;-74
2023/05/18 00:20:28;;;;;;;2.92;1.38;;;16.80;51.20;;;;;;5980974;29;20042;-73
2023/05/18 00:23:38;;;;;;;7.88;2.13;;;16.80;51.30;;;;;;5980030;29;20047;-73
2023/05/18 00:26:46;;;;;;;5.03;1.52;;;16.80;51.30;;;;;;5994952;29;20090;-74
2023/05/18 00:29:52;;;;;;;6.85;1.60;;;16.80;51.40;;;;;;5981938;29;20031;-74
2023/05/18 00:33:07;;;;;;;3.13;1.88;;;16.80;51.50;;;;;;5976385;29;20645;-73
2023/05/18 00:36:18;;;;;;;2.78;1.42;;;16.80;51.70;;;;;;5957176;29;20039;-74
2023/05/18 00:39:30;;;;;;;4.25;1.70;;;16.70;51.60;;;;;;5979457;29;20049;-74
2023/05/18 00:42:35;;;;;;;2.35;1.38;;;16.70;51.90;;;;;;5765200;29;6448535;-73
2023/05/18 00:45:40;;;;;;;3.47;1.80;;;16.70;52.00;;;;;;5980608;29;20133;-75
2023/05/18 00:48:46;;;;;;;5.63;1.60;;;16.60;52.10;;;;;;5980887;29;20122;-74
2023/05/18 00:51:55;;;;;;;2.35;1.35;;;16.60;52.20;;;;;;5987294;29;20133;-74
2023/05/18 00:55:11;;;;;;;3.55;1.90;;;16.60;52.20;;;;;;6003192;29;20061;-75
2023/05/18 00:58:19;;;;;;;2.70;1.40;;;16.70;52.20;;;;;;5982174;29;20118;-74
2023/05/18 01:01:29;;;;;;;;;;;16.60;52.30;;;;;;5989505;29;20479;-73
2023/05/18 01:04:34;;;;;;;6.53;2.00;;;16.70;52.20;;;;;;5991325;29;19917;-73
2023/05/18 01:07:43;;;;;;;3.08;1.50;;;16.70;52.10;;;;;;5986943;29;20065;-74
2023/05/18 01:11:15;;;;;;;4.20;1.73;;;16.70;52.20;;;;;;5985026;29;20034;-73
2023/05/18 01:14:49;;;;;;;5.80;1.83;;;16.70;52.30;;;;;;5986612;29;20038;-75
2023/05/18 01:18:03;;;;;;;5.07;1.65;;;16.70;52.40;;;;;;5986441;29;20034;-72
2023/05/18 01:21:20;;;;;;;3.55;1.60;;;16.70;52.50;;;;;;5984549;29;20141;-73
2023/05/18 01:24:38;;;;;;;;;;;16.60;52.50;;;;;;5999883;29;20060;-73
2023/05/18 01:27:49;;;;;;;2.53;1.58;;;16.70;52.50;;;;;;5984165;29;19921;-75
2023/05/18 01:31:00;;;;;;;3.13;1.58;;;16.70;52.50;;;;;;5993743;29;20183;-74
2023/05/18 01:34:18;;;;;;;6.97;2.00;;;16.70;52.70;;;;;;5983609;29;20034;-73
2023/05/18 01:37:27;;;;;;;3.58;1.67;;;16.60;52.70;;;;;;5999642;29;20074;-77
2023/05/18 01:40:47;;;;;;;5.88;1.67;;;16.60;52.70;;;;;;5985475;29;20034;-73
2023/05/18 01:44:16;;;;;;;3.40;1.90;;;16.70;52.80;;;;;;5985591;29;20057;-75
2023/05/18 01:47:30;;;;;;;4.75;1.40;;;16.60;52.90;;;;;;5998463;29;20144;-75
2023/05/18 01:50:40;;;;;;;5.95;1.60;;;16.60;52.90;;;;;;5985265;29;20034;-74
2023/05/18 01:54:03;;;;;;;5.15;1.77;;;16.60;52.90;;;;;;5983586;29;20121;-75
2023/05/18 01:57:12;;;;;;;4.22;1.42;;;16.60;53.10;;;;;;5983646;29;20042;-73
2023/05/18 02:00:19;;;;;;;6.28;2.38;;;16.50;53.20;;;;;;5969633;29;20091;-75
2023/05/18 02:03:30;;;;;;;9.32;3.60;;;16.50;53.50;;;;;;5999810;29;20050;-76
2023/05/18 02:06:37;;;;;;;9.60;4.20;;;16.50;53.60;;;;;;5983429;29;20132;-73
2023/05/18 02:09:45;;;;;;;10.63;4.18;;;16.40;53.70;;;;;;5998064;29;20534;-76
2023/05/18 02:12:51;;;;;;;9.23;3.42;;;16.40;53.80;;;;;;5983489;29;20467;-74
2023/05/18 02:16:00;;;;;;;5.78;3.13;;;16.40;53.80;;;;;;5984749;29;20604;-73
2023/05/18 02:19:10;;;;;;;9.55;3.80;;;16.40;54.00;;;;;;5982703;29;20038;-74
2023/05/18 02:22:18;;;;;;;;;;;16.40;54.10;;;;;;5984984;29;20046;-75
2023/05/18 02:25:24;;;;;;;9.25;3.35;;;16.40;54.20;;;;;;5983020;29;19936;-76
2023/05/18 02:28:30;;;;;;;6.93;3.85;;;16.40;54.20;;;;;;5982695;29;20166;-73
2023/05/18 02:31:36;;;;;;;6.93;3.17;;;16.40;54.30;;;;;;5983903;29;20027;-73
2023/05/18 02:34:42;;;;;;;6.70;3.13;;;16.30;54.20;;;;;;5983840;29;20117;-75
2023/05/18 02:37:52;;;;;;;6.75;2.85;;;16.40;54.30;;;;;;5982868;29;20035;-75
2023/05/18 02:41:03;;;;;;;9.57;2.83;;;16.40;54.40;;;;;;5983879;29;20045;-74
2023/05/18 02:44:12;;;;;;;6.97;2.60;;;16.40;54.40;;;;;;5982249;29;20054;-74
2023/05/18 02:47:16;;;;;;;6.15;2.58;;;16.30;54.40;;;;;;5983698;29;20098;-74
2023/05/18 02:50:23;;;;;;;4.25;2.10;;;16.30;54.50;;;;;;5975006;29;20043;-74
2023/05/18 02:53:31;;;;;;;5.25;1.88;;;16.20;54.40;;;;;;5999555;29;20090;-72
2023/05/18 02:56:46;;;;;;;2.88;1.85;;;16.30;54.50;;;;;;6006418;29;20383;-74
2023/05/18 03:00:15;;;;;;;4.57;1.80;;;16.30;54.60;;;;;;6004186;29;20125;-74
2023/05/18 03:03:24;;;;;;;7.85;2.53;;;16.30;54.80;;;;;;6006521;29;20124;-74
2023/05/18 03:06:30;;;;;;;;;;;16.30;54.80;;;;;;6004686;29;20475;-73
2023/05/18 03:09:37;;;;;;;2.35;1.60;;;16.20;54.80;;;;;;6004783;29;19912;-73
2023/05/18 03:12:45;;;;;;;3.22;1.80;;;16.20;54.80;;;;;;6004440;29;20038;-74
2023/05/18 03:15:51;;;;;;;2.47;1.70;;;16.20;54.90;;;;;;6006026;29;20113;-73
2023/05/18 03:19:02;;;;;;;3.47;1.85;;;16.20;55.00;;;;;;6004535;29;20048;-75
2023/05/18 03:22:17;;;;;;;3.83;1.60;;;16.20;55.00;;;;;;6004404;29;20037;-75
2023/05/18 03:25:25;;;;;;;4.85;1.65;;;16.20;55.00;;;;;;6004858;29;20038;-76
2023/05/18 03:28:36;;;;;;;6.15;2.17;;;16.20;55.10;;;;;;6005657;29;20046;-75
2023/05/18 03:31:43;;;;;;;2.88;1.40;;;16.20;55.10;;;;;;6006985;29;20116;-74
2023/05/18 03:34:59;;;;;;;7.20;1.80;;;16.20;55.20;;;;;;5981819;29;20038;-76
2023/05/18 03:38:12;;;;;;;2.97;1.50;;;16.20;55.20;;;;;;5981709;29;20039;-75
2023/05/18 03:41:21;;;;;;;3.03;1.85;;;16.20;55.30;;;;;;5981489;29;20068;-73
2023/05/18 03:44:31;;;;;;;2.78;1.73;;;16.20;55.30;;;;;;5981337;29;20352;-75
2023/05/18 03:47:37;;;;;;;3.00;1.60;;;16.10;55.30;;;;;;5980955;29;20048;-74
2023/05/18 03:50:43;;;;;;;2.33;1.80;;;16.10;55.30;;;;;;5996728;29;20035;-75
2023/05/18 03:53:48;;;;;;;5.50;2.13;;;16.20;55.40;;;;;;6004106;29;20029;-73
2023/05/18 03:56:57;;;;;;;5.88;1.90;;;16.20;55.40;;;;;;6004536;29;20041;-73
2023/05/18 04:00:12;;;;;;;3.15;1.80;;;16.20;55.40;;;;;;6005605;29;20098;-75
2023/05/18 04:03:25;;;;;;;2.33;1.80;;;16.20;55.50;;;;;;6004166;29;20614;-74
2023/05/18 04:06:30;;;;;;;4.05;1.90;;;16.10;55.50;;;;;;6004495;29;20070;-72
2023/05/18 04:09:35;;;;;;;8.07;2.10;;;16.10;55.80;;;;;;6005088;29;20344;-72
2023/05/18 04:12:42;;;;;;;5.60;2.00;;;16.10;55.90;;;;;;6019244;29;20034;-73
2023/05/18 04:15:50;;;;;;;4.18;2.05;;;16.10;56.00;;;;;;6005291;29;20050;-73
2023/05/18 04:18:56;;;;;;;2.33;1.65;;;16.00;56.00;;;;;;5993587;29;20060;-75
2023/05/18 04:22:11;;;;;;;6.05;1.83;;;16.10;56.20;;;;;;5982938;29;20034;-75
2023/05/18 04:25:17;;;;;;;4.93;1.77;;;16.00;56.20;;;;;;5982673;29;20037;-73
2023/05/18 04:28:31;;;;;;;2.20;1.52;;;16.00;56.20;;;;;;5980864;29;20062;-73
2023/05/18 04:31:41;;;;;;;2.95;1.70;;;15.90;56.30;;;;;;5982761;29;20110;-73
2023/05/18 04:34:48;;;;;;;2.53;1.73;;;15.90;56.40;;;;;;5980046;29;20232;-75
2023/05/18 04:37:57;;;;;;;4.18;1.80;;;15.80;56.40;;;;;;5995154;29;20039;-73
2023/05/18 04:41:08;;;;;;;3.80;1.55;;;15.80;56.40;;;;;;5981125;29;20027;-76
2023/05/18 04:44:17;;;;;;;3.05;1.55;;;15.80;56.40;;;;;;5982112;29;20046;-73
2023/05/18 04:47:24;;;;;;;3.10;1.58;;;15.80;56.20;;;;;;5982124;29;20045;-72
2023/05/18 04:50:36;;;;;;;2.78;1.73;;;15.80;56.10;;;;;;5980831;29;20034;-74
2023/05/18 04:53:44;;;;;;;8.20;1.80;;;15.70;56.00;;;;;;5982194;29;20074;-73
2023/05/18 04:56:51;;;;;;;5.13;1.92;;;15.70;56.00;;;;;;5980088;29;20034;-75
2023/05/18 05:00:04;;;;;;;10.35;1.65;;;15.70;56.00;;;;;;5982050;29;20061;-75
2023/05/18 05:03:16;;;;;;;1.90;1.50;;;15.70;56.10;;;;;;5981114;29;20033;-74
2023/05/18 05:06:22;;;;;;;11.15;1.73;;;15.60;56.10;;;;;;5995880;29;20042;-74
2023/05/18 05:09:31;;;;;;;6.13;1.98;;;15.60;56.20;;;;;;5982200;29;20035;-74
2023/05/18 05:12:41;;;;;;;3.10;1.80;;;15.60;56.30;;;;;;5981668;29;20033;-73
2023/05/18 05:15:51;;;;;;;8.07;2.10;;;15.50;56.40;;;;;;5981699;29;20178;-73
2023/05/18 05:19:02;;;;;;;4.03;1.65;;;15.50;56.50;;;;;;5981577;29;20086;-75
2023/05/18 05:22:13;;;;;;;3.55;1.67;;;15.40;56.70;;;;;;5980701;29;20042;-75
2023/05/18 05:25:22;;;;;;;4.95;1.73;;;15.40;56.90;;;;;;5980425;29;20030;-76
2023/05/18 05:28:27;;;;;;;10.18;2.05;;;15.40;57.60;;;;;;5982127;29;20053;-75
2023/05/18 05:31:34;;;;;;;4.88;2.17;;;15.30;57.10;;;;;;5981839;29;20050;-73
2023/05/18 05:34:45;;;;;;;4.97;2.00;;;15.30;57.20;;;;;;5966208;29;20062;-73
2023/05/18 05:37:54;;;;;;;4.13;2.28;;;15.30;57.40;;;;;;5982115;29;20034;-75
2023/05/18 05:41:05;;;;;;;13.10;3.30;;;15.30;57.50;;;;;;5980385;29;20483;-75
2023/05/18 05:44:15;;;;;;;4.75;1.95;;;15.30;57.60;;;;;;5982336;29;20038;-76
2023/05/18 05:47:26;;;;;;;6.72;2.60;;;15.30;57.70;;;;;;5985083;29;20073;-76
2023/05/18 05:50:34;;;;;;;7.60;2.50;;;15.30;57.70;;;;;;5984530;29;20109;-76
2023/05/18 05:53:48;;;;;;;6.13;2.17;;;15.30;57.80;;;;;;5970126;29;20121;-74
2023/05/18 05:57:05;;;;;;;5.45;2.13;;;15.30;57.80;;;;;;5995023;29;20038;-75
2023/05/18 06:00:18;;;;;;;5.85;2.50;;;15.30;57.80;;;;;;5985739;29;20042;-74
2023/05/18 06:03:34;;;;;;;13.05;2.60;;;15.40;57.80;;;;;;5983813;29;20034;-74
2023/05/18 06:06:44;;;;;;;5.28;2.20;;;15.40;57.60;;;;;;5984874;29;20121;-74
2023/05/18 06:09:52;;;;;;;5.40;2.72;;;15.40;57.50;;;;;;5985424;29;20057;-74
2023/05/18 06:13:02;;;;;;;4.50;2.17;;;15.40;57.50;;;;;;5961547;29;20035;-74
2023/05/18 06:16:22;;;;;;;4.20;1.95;;;15.50;57.60;;;;;;5963245;29;20045;-75
2023/05/18 06:19:32;;;;;;;11.77;2.53;;;15.50;57.60;;;;;;5960866;29;20482;-75
2023/05/18 06:22:37;;;;;;;6.50;2.65;;;15.50;57.60;;;;;;5963273;29;20042;-74
2023/05/18 06:26:03;;;;;;;5.90;2.30;;;15.50;57.50;;;;;;5962382;29;20051;-76
2023/05/18 06:29:18;;;;;;;5.55;2.35;;;15.50;57.50;;;;;;5961860;29;20043;-75
2023/05/18 06:32:56;;;;;;;7.93;2.20;;;15.50;57.40;;;;;;5964503;29;20061;-74
2023/05/18 06:36:05;;;;;;;8.02;2.67;;;15.60;57.40;;;;;;5985004;29;20037;-76
2023/05/18 06:39:13;;;;;;;15.20;2.60;;;15.60;57.20;;;;;;5983283;29;20337;-76
2023/05/18 06:42:23;;;;;;;7.75;2.95;;;15.60;57.00;;;;;;5983105;29;20095;-74
2023/05/18 06:45:38;;;;;;;8.27;2.53;;;15.60;56.70;;;;;;5984452;29;20087;-72
2023/05/18 06:48:55;;;;;;;3.05;2.08;;;15.70;56.60;;;;;;5969365;29;20034;-75
2023/05/18 06:52:08;;;;;;;8.63;2.60;;;15.70;56.50;;;;;;5983361;29;20083;-74
2023/05/18 06:55:21;;;;;;;5.20;2.38;;;15.70;56.40;;;;;;5969044;29;20035;-75
2023/05/18 06:58:29;;;;;;;10.53;2.57;;;15.70;56.20;;;;;;5983117;29;20109;-74
2023/05/18 07:01:40;;;;;;;4.28;2.28;;;15.80;56.10;;;;;;5982656;29;20072;-76
2023/05/18 07:04:45;;;;;;;9.57;2.53;;;15.80;55.90;;;;;;5983058;29;20428;-75
2023/05/18 07:07:51;;;;;;;8.15;2.47;;;15.90;55.80;;;;;;5997527;29;20163;-74
2023/05/18 07:11:01;;;;;;;10.80;2.75;;;15.90;55.70;;;;;;5982785;29;20154;-75
2023/05/18 07:14:08;;;;;;;11.82;2.47;;;16.00;55.50;;;;;;5983190;29;20041;-76
2023/05/18 07:17:19;;;;;;;6.30;2.53;;;16.10;55.40;;;;;;5998513;29;20106;-73
2023/05/18 07:20:30;;;;;;;5.72;2.90;;;16.10;55.20;;;;;;5986130;29;20090;-75
2023/05/18 07:23:36;;;;;;;7.25;2.80;;;16.10;55.10;;;;;;5990558;29;20079;-75
2023/05/18 07:26:41;;;;;;;7.32;2.78;;;16.10;55.10;;;;;;5987202;29;20105;-74
2023/05/18 07:29:49;;;;;;;4.97;2.47;;;16.00;55.00;;;;;;5997542;29;20034;-77
2023/05/18 07:33:01;;;;;;;6.22;2.95;;;16.10;54.90;;;;;;5983921;29;20030;-75
2023/05/18 07:36:09;;;;;;;6.75;2.45;;;16.10;54.80;;;;;;5982215;29;20167;-75
2023/05/18 07:39:18;;;;;;;6.63;2.60;;;16.10;54.70;;;;;;5982339;29;20516;-76
2023/05/18 07:42:29;;;;;;;8.93;3.08;;;16.20;54.60;;;;;;5981746;29;20034;-76
2023/05/18 07:45:33;;;;;;;5.75;2.50;;;16.20;54.70;;;;;;5981838;29;20064;-77
2023/05/18 07:48:39;;;;;;;11.82;2.72;;;16.20;54.70;;;;;;5966813;29;20026;-74
2023/05/18 07:51:44;;;;;;;6.10;2.78;;;16.20;54.60;;;;;;5981841;29;20224;-76
2023/05/18 07:54:50;;;;;;;7.25;2.85;;;16.30;54.50;;;;;;5982081;29;20033;-75
2023/05/18 07:58:04;;;;;;;4.88;2.80;;;16.40;54.50;;;;;;5973820;29;20039;-76
2023/05/18 08:01:13;;;;;;;4.43;2.35;;;16.50;54.50;;;;;;5960816;29;20115;-74
2023/05/18 08:04:21;;;;;;;5.90;2.97;;;16.60;54.30;;;;;;5961256;29;20035;-75
2023/05/18 08:07:31;;;;;;;7.70;3.03;;;16.60;54.10;;;;;;5970378;29;20131;-75
2023/05/18 08:10:40;;;;;;;5.80;2.42;;;16.70;54.00;;;;;;5981069;29;20054;-75
2023/05/18 08:13:45;;;;;;;4.85;2.28;;;16.80;53.90;;;;;;5983090;29;20045;-73
2023/05/18 08:17:01;;;;;;;10.57;2.53;;;16.90;53.70;;;;;;5981473;29;20049;-73
2023/05/18 08:20:09;;;;;;;7.70;2.20;;;17.00;53.60;;;;;;5996652;29;20487;-76
2023/05/18 08:23:16;;;;;;;4.68;2.30;;;17.10;53.50;;;;;;5982783;29;20087;-74
2023/05/18 08:26:25;;;;;;;7.88;3.05;;;17.10;53.40;;;;;;5981834;29;20070;-75
2023/05/18 08:29:34;;;;;;;7.43;2.95;;;17.20;53.30;;;;;;5996295;29;20488;-75
2023/05/18 08:32:40;;;;;;;7.05;2.45;;;17.20;53.20;;;;;;5981005;29;20199;-75
2023/05/18 08:35:46;;;;;;;10.80;3.08;;;17.30;53.20;;;;;;5982721;29;20026;-75
2023/05/18 08:39:00;;;;;;;10.23;2.70;;;17.30;53.10;;;;;;5983395;29;20038;-77
2023/05/18 08:42:20;;;;;;;6.97;2.60;;;17.20;53.20;;;;;;5981877;29;20523;-74
2023/05/18 08:45:51;;;;;;;5.05;2.80;;;17.20;53.30;;;;;;5966331;29;20138;-74
2023/05/18 08:49:06;;;;;;;12.80;2.92;;;17.20;53.40;;;;;;5982587;29;20057;-75
2023/05/18 08:52:21;;;;;;;6.63;2.63;;;17.20;53.60;;;;;;6005816;29;20125;-75
2023/05/18 08:55:35;;;;;;;7.68;3.20;;;17.20;53.80;;;;;;6003911;29;20030;-75
2023/05/18 08:58:51;;;;;;;10.73;3.20;;;17.20;54.00;;;;;;6003112;29;20060;-73
2023/05/18 09:02:01;;;;;;;8.43;3.35;;;17.20;54.10;;;;;;5980652;29;20038;-77
2023/05/18 09:05:16;;;;;;;8.10;2.50;;;17.30;54.20;;;;;;5983222;29;20051;-73
2023/05/18 09:08:25;;;;;;;6.22;2.60;;;17.30;54.10;;;;;;5981403;29;20041;-74
2023/05/18 09:11:34;;;;;;;5.60;2.50;;;17.30;54.20;;;;;;5967141;29;20031;-74
2023/05/18 09:14:44;;;;;;;7.03;2.85;;;17.40;54.30;;;;;;5983564;29;20111;-74
2023/05/18 09:17:50;;;;;;;5.10;2.65;;;17.60;54.30;;;;;;5983473;29;20039;-74
2023/05/18 09:21:00;;;;;;;4.95;2.72;;;17.70;54.10;;;;;;5983445;29;20479;-75
2023/05/18 09:24:14;;;;;;;4.90;2.65;;;17.90;53.50;;;;;;5985803;29;20042;-76
2023/05/18 09:27:23;;;;;;;5.15;2.72;;;18.00;53.00;;;;;;6000348;29;20038;-77
2023/05/18 09:30:38;;;;;;;7.45;3.13;;;18.00;52.70;;;;;;5986910;29;20039;-76
2023/05/18 09:33:45;;;;;;;7.57;2.90;;;18.10;52.60;;;;;;5986731;29;20157;-74
2023/05/18 09:36:56;;;;;;;9.48;3.10;;;18.20;52.40;;;;;;5970232;29;20064;-75
2023/05/18 09:40:15;;;;;;;13.77;3.17;;;18.30;52.30;;;;;;5985789;29;20034;-74
2023/05/18 09:43:20;;;;;;;7.68;2.85;;;18.50;52.40;;;;;;5984579;29;20042;-75
2023/05/18 09:46:32;;;;;;;6.70;2.92;;;18.60;52.00;;;;;;5986226;29;20079;-75
2023/05/18 09:49:41;;;;;;;5.82;3.08;;;18.90;51.80;;;;;;5985498;29;20494;-73
2023/05/18 09:52:50;;;;;;;4.97;3.10;;;18.90;51.60;;;;;;5983964;29;20078;-76
2023/05/18 09:56:05;;;;;;;8.60;3.10;;;19.20;51.50;;;;;;5984077;29;20088;-75
2023/05/18 09:59:16;;;;;;;7.40;2.80;;;19.40;51.00;;;;;;5985670;29;20038;-73
2023/05/18 10:02:24;;;;;;;5.97;2.55;;;19.50;50.40;;;;;;5983859;29;20294;-75
2023/05/18 10:05:35;;;;;;;6.50;2.70;;;19.50;50.30;;;;;;5983924;29;20049;-76
2023/05/18 10:08:44;;;;;;;5.82;2.80;;;19.50;50.10;;;;;;5985689;29;20117;-75
2023/05/18 10:11:51;;;;;;;8.88;3.05;;;19.50;49.90;;;;;;5985361;29;20049;-73
2023/05/18 10:15:11;;;;;;;9.52;2.55;;;19.60;49.70;;;;;;5984074;29;20038;-73
2023/05/18 10:18:24;;;;;;;6.60;3.05;;;19.60;49.50;;;;;;5999244;29;20044;-74
2023/05/18 10:21:37;;;;;;;6.25;2.85;;;19.70;49.30;;;;;;5985148;29;20041;-75
2023/05/18 10:24:51;;;;;;;4.82;2.80;;;19.70;49.10;;;;;;5985539;29;20045;-76
2023/05/18 10:28:06;;;;;;;12.27;2.83;;;19.70;48.80;;;;;;5985015;29;20054;-75
2023/05/18 10:31:21;;;;;;;4.70;2.70;;;19.70;48.90;;;;;;5986526;29;20117;-74
2023/05/18 10:34:36;;;;;;;8.32;2.47;;;19.70;48.50;;;;;;5991985;29;20040;-76
2023/05/18 10:37:46;;;;;;;6.32;2.38;;;19.80;48.30;;;;;;5988139;29;20038;-75
2023/05/18 10:40:58;;;;;;;5.30;2.35;;;19.80;48.10;;;;;;5985520;29;20066;-75
2023/05/18 10:44:10;;;;;;;9.63;2.70;;;19.80;47.90;;;;;;5985768;29;20121;-76
2023/05/18 10:47:19;;;;;;;5.75;2.42;;;19.80;47.70;;;;;;5986385;29;20038;-75
2023/05/18 10:50:29;;;;;;;5.60;1.95;;;19.80;47.50;;;;;;5986193;29;21766;-74
2023/05/18 10:53:35;;;;;;;3.65;2.38;;;19.80;47.30;;;;;;5968890;29;20384;-76
2023/05/18 10:56:51;;;;;;;8.25;2.80;;;19.70;47.90;;;;;;5969595;29;20110;-74
2023/05/18 10:59:59;;;;;;;4.95;2.40;;;19.70;47.20;;;;;;5983342;29;20054;-76
2023/05/18 11:03:15;;;;;;;12.05;3.03;;;19.60;47.30;;;;;;5982968;29;20068;-75
2023/05/18 11:06:26;;;;;;;11.88;2.42;;;19.50;47.50;;;;;;5984109;29;20128;-74
2023/05/18 11:09:35;;;;;;;4.32;2.17;;;19.40;47.50;;;;;;5982565;29;20427;-76
2023/05/18 11:12:40;;;;;;;6.40;2.45;;;19.30;47.40;;;;;;5983962;29;20034;-75
2023/05/18 11:15:54;;;;;;;9.80;3.15;;;19.20;47.50;;;;;;5997675;29;20184;-74
2023/05/18 11:19:13;;;;;;;6.47;2.33;;;19.10;47.60;;;;;;5983765;29;20114;-75
2023/05/18 11:22:21;;;;;;;8.48;3.00;;;19.20;47.60;;;;;;5981835;29;20050;-74
2023/05/18 11:25:35;;;;;;;7.50;2.70;;;19.20;47.50;;;;;;5982399;29;20070;-75
2023/05/18 11:28:45;;;;;;;6.88;2.70;;;19.20;47.50;;;;;;5967541;29;20070;-75
2023/05/18 11:32:00;;;;;;;5.50;2.17;;;19.40;47.50;;;;;;5984156;29;20054;-73
2023/05/18 11:35:23;;;;;;;4.80;2.43;;;19.50;47.30;;;;;;5984221;29;20069;-73
2023/05/18 11:38:55;;;;;;;7.93;2.70;;;19.70;47.00;;;;;;5984050;29;20042;-73
2023/05/18 11:42:08;;;;;;;8.55;3.00;;;19.80;46.90;;;;;;5975394;29;20380;-74
2023/05/18 11:45:20;;;;;;;9.90;3.00;;;20.00;46.70;;;;;;5981783;29;20125;-74
2023/05/18 11:48:33;;;;;;;8.05;3.40;;;20.10;46.50;;;;;;5966581;29;20530;-75
2023/05/18 11:52:13;;;;;;;7.20;2.88;;;20.10;46.60;;;;;;5984622;29;20034;-75
2023/05/18 11:55:22;;;;;;;6.43;3.00;;;20.10;46.80;;;;;;5997477;29;20115;-74
2023/05/18 11:58:33;;;;;;;9.27;4.00;;;20.10;46.90;;;;;;5983172;29;20047;-74
2023/05/18 12:01:40;;;;;;;6.78;3.50;;;20.10;46.90;;;;;;5968303;29;20427;-73
2023/05/18 12:04:51;;;;;;;8.38;3.78;;;20.10;47.10;;;;;;5983701;29;20034;-74
2023/05/18 12:08:00;;;;;;;9.43;3.58;;;20.00;47.20;;;;;;5982979;29;20030;-75
2023/05/18 12:11:12;;;;;;;6.68;3.45;;;20.00;47.50;;;;;;5983208;29;20510;-74
2023/05/18 12:14:21;;;;;;;8.55;3.40;;;19.90;47.80;;;;;;5985141;29;20143;-73
2023/05/18 12:17:47;;;;;;;8.52;3.65;;;19.80;48.00;;;;;;5983628;29;20123;-74
2023/05/18 12:20:59;;;;;;;6.40;3.08;;;19.70;48.10;;;;;;5997958;29;20039;-73
2023/05/18 12:24:11;;;;;;;7.43;3.15;;;19.50;48.30;;;;;;5984548;29;20132;-75
2023/05/18 12:27:17;;;;;;;6.68;3.35;;;19.50;48.60;;;;;;5983199;29;20031;-75
2023/05/18 12:30:37;;;;;;;7.22;3.13;;;19.50;48.70;;;;;;5998225;29;20026;-72
2023/05/18 12:33:44;;;;;;;5.40;3.22;;;19.50;48.60;;;;;;5983937;29;20030;-75
2023/05/18 12:36:57;;;;;;;8.55;4.28;;;19.50;48.80;;;;;;5981116;29;20038;-73
2023/05/18 12:40:08;;;;;;;9.75;3.40;;;19.50;48.90;;;;;;5982163;29;20485;-74
2023/05/18 12:43:15;;;;;;;7.18;3.65;;;19.60;48.80;;;;;;5982021;29;20086;-73
2023/05/18 12:46:25;;;;;;;5.30;3.20;;;19.80;48.60;;;;;;5982102;29;20046;-73
2023/05/18 12:49:39;;;;;;;8.95;3.90;;;19.90;48.30;;;;;;5995533;29;20072;-74
2023/05/18 12:52:46;;;;;;;10.48;3.53;;;19.90;48.30;;;;;;5993947;29;20064;-76
2023/05/18 12:56:08;;;;;;;9.93;3.58;;;19.90;48.30;;;;;;6022229;29;20046;-74
2023/05/18 12:59:22;;;;;;;6.55;3.45;;;20.10;48.10;;;;;;6010116;29;20106;-75
2023/05/18 13:02:37;;;;;;;7.55;3.30;;;20.30;47.60;;;;;;6010596;29;20142;-75
2023/05/18 13:05:45;;;;;;;9.63;3.92;;;20.40;47.50;;;;;;6010905;29;20041;-73
2023/05/18 13:08:58;;;;;;;5.93;3.53;;;20.40;47.40;;;;;;6011726;29;20173;-74
2023/05/18 13:12:13;;;;;;;22.15;4.38;;;20.60;47.80;;;;;;6011056;29;20042;-75
2023/05/18 13:15:24;;;;;;;27.25;4.30;;;20.70;47.10;;;;;;6011126;29;20026;-76
2023/05/18 13:18:35;;;;;;;8.73;3.50;;;20.70;47.10;;;;;;6025668;29;20033;-73
2023/05/18 13:21:42;;;;;;;6.38;3.35;;;20.60;46.90;;;;;;6010772;29;20041;-74
2023/05/18 13:24:47;;;;;;;7.38;3.65;;;20.70;46.90;;;;;;6011441;29;20116;-75
2023/05/18 13:27:58;;;;;;;6.55;4.07;;;20.70;46.90;;;;;;6011536;29;20034;-74
2023/05/18 13:31:11;;;;;;;7.47;3.28;;;20.60;46.90;;;;;;6011531;29;20034;-73
2023/05/18 13:34:17;;;;;;;9.60;4.15;;;20.50;47.00;;;;;;6011477;29;20026;-74
2023/05/18 13:37:25;;;;;;;6.22;3.63;;;20.40;47.20;;;;;;6011690;29;20029;-74
2023/05/18 13:40:32;;;;;;;8.07;3.55;;;20.40;47.50;;;;;;6007871;29;20169;-74
2023/05/18 13:43:41;;;;;;;8.52;3.88;;;20.30;47.50;;;;;;5992886;29;20042;-74
2023/05/18 13:46:52;;;;;;;11.18;3.58;;;20.30;47.60;;;;;;5992971;29;20046;-75
2023/05/18 13:50:00;;;;;;;6.88;3.35;;;20.20;47.70;;;;;;5988470;29;20034;-75
2023/05/18 13:53:11;;;;;;;14.77;3.45;;;20.20;47.80;;;;;;5987637;29;20054;-74
2023/05/18 13:56:20;;;;;;;6.15;3.35;;;20.20;47.80;;;;;;5989545;29;20065;-74
2023/05/18 13:59:33;;;;;;;7.97;3.88;;;20.20;47.90;;;;;;5988796;29;20550;-73
2023/05/18 14:02:44;;;;;;;9.40;3.83;;;20.20;48.00;;;;;;5988933;29;20101;-75
2023/05/18 14:05:51;;;;;;;7.35;4.05;;;20.10;48.00;;;;;;6001917;29;20046;-73
2023/05/18 14:09:08;;;;;;;9.50;4.03;;;20.10;48.20;;;;;;5984962;29;20082;-76
2023/05/18 14:12:20;;;;;;;12.38;4.05;;;20.10;48.30;;;;;;5985279;29;20042;-73
2023/05/18 14:15:28;;;;;;;7.93;3.90;;;20.00;48.40;;;;;;5998385;29;20042;-76
2023/05/18 14:18:36;;;;;;;9.13;3.85;;;20.10;48.40;;;;;;5998121;29;20041;-75
2023/05/18 14:21:41;;;;;;;5.95;3.22;;;20.20;48.30;;;;;;5985007;29;20042;-74
2023/05/18 14:24:52;;;;;;;11.85;4.07;;;20.40;48.10;;;;;;5985200;29;20130;-74
2023/05/18 14:27:58;;;;;;;7.82;3.85;;;20.50;47.60;;;;;;5985560;29;20034;-74
2023/05/18 14:31:06;;;;;;;8.43;3.65;;;20.70;47.40;;;;;;5985569;29;20027;-76
2023/05/18 14:34:16;;;;;;;10.73;3.92;;;20.70;47.40;;;;;;5984979;29;20038;-76
2023/05/18 14:37:24;;;;;;;8.32;3.60;;;20.80;47.60;;;;;;5984822;29;20148;-75
2023/05/18 14:40:38;;;;;;;10.13;4.13;;;20.80;47.70;;;;;;5995712;29;20041;-76
2023/05/18 14:43:46;;;;;;;8.73;4.40;;;20.90;47.90;;;;;;5962564;29;20099;-74
2023/05/18 14:46:54;;;;;;;7.63;3.25;;;20.80;48.00;;;;;;5975730;29;20039;-76
2023/05/18 14:50:08;;;;;;;7.13;3.90;;;20.80;48.20;;;;;;5946573;29;20026;-75
2023/05/18 14:53:17;;;;;;;9.85;4.05;;;20.70;48.20;;;;;;5995947;29;20029;-75
2023/05/18 14:56:28;;;;;;;8.50;3.70;;;20.60;48.30;;;;;;6005868;29;20065;-74
2023/05/18 14:59:37;;;;;;;12.13;4.32;;;20.40;48.30;;;;;;5999501;29;20042;-74
2023/05/18 15:02:42;;;;;;;11.97;4.50;;;20.30;48.50;;;;;;5983881;29;20034;-74
2023/05/18 15:05:48;;;;;;;9.07;3.58;;;20.30;48.80;;;;;;5982309;29;20046;-74
2023/05/18 15:08:55;;;;;;;8.38;3.97;;;20.10;48.90;;;;;;5983302;29;20142;-74
2023/05/18 15:12:04;;;;;;;6.63;3.80;;;19.90;49.10;;;;;;5982342;29;20076;-76
2023/05/18 15:15:12;;;;;;;12.35;3.80;;;19.80;49.30;;;;;;5982458;29;20046;-76
2023/05/18 15:18:19;;;;;;;7.38;3.33;;;19.70;49.60;;;;;;5983120;29;20046;-74
2023/05/18 15:21:28;;;;;;;7.93;3.78;;;19.50;49.60;;;;;;5983739;29;20035;-74
2023/05/18 15:24:35;;;;;;;8.52;4.40;;;19.40;49.90;;;;;;5982162;29;20034;-75
2023/05/18 15:27:42;;;;;;;5.65;3.47;;;19.30;50.20;;;;;;5983668;29;20031;-75
2023/05/18 15:30:47;;;;;;;10.75;3.90;;;19.30;50.50;;;;;;5981567;29;20122;-77
2023/05/18 15:33:55;;;;;;;11.43;3.60;;;19.20;50.60;;;;;;5983223;29;20042;-76
2023/05/18 15:37:08;;;;;;;10.60;3.92;;;19.10;50.60;;;;;;5983052;29;20040;-75
2023/05/18 15:40:13;;;;;;;8.45;3.67;;;19.10;50.70;;;;;;5982785;29;20065;-74
2023/05/18 15:43:25;;;;;;;12.23;4.10;;;18.90;51.00;;;;;;5981009;29;20508;-75
2023/05/18 15:46:34;;;;;;;7.88;3.60;;;18.80;51.50;;;;;;5981555;29;20042;-75
2023/05/18 15:49:40;;;;;;;11.90;3.97;;;18.60;51.90;;;;;;5983410;29;20041;-75
2023/05/18 15:52:46;;;;;;;8.30;3.13;;;18.50;52.50;;;;;;5983315;29;20030;-74
2023/05/18 15:55:56;;;;;;;5.95;3.30;;;18.50;53.00;;;;;;5996503;29;20091;-76
2023/05/18 15:59:07;;;;;;;7.95;3.67;;;18.40;53.10;;;;;;5997024;29;20039;-75
2023/05/18 16:02:15;;;;;;;5.88;3.15;;;18.40;53.30;;;;;;5983672;29;20094;-76
2023/05/18 16:05:24;;;;;;;7.72;3.40;;;18.30;53.50;;;;;;5981595;29;20162;-74
2023/05/18 16:08:31;;;;;;;10.05;3.85;;;18.30;53.80;;;;;;5982363;29;20034;-74
2023/05/18 16:11:40;;;;;;;11.50;4.53;;;18.30;53.80;;;;;;5982576;29;20030;-74
2023/05/18 16:14:45;;;;;;;6.70;3.38;;;18.40;53.70;;;;;;5995955;29;20110;-75
2023/05/18 16:17:55;;;;;;;8.43;3.55;;;18.40;53.60;;;;;;5982662;29;20026;-75
2023/05/18 16:21:05;;;;;;;10.70;3.47;;;18.40;53.60;;;;;;5995962;29;20125;-73
2023/05/18 16:24:16;;;;;;;8.77;3.83;;;18.50;53.50;;;;;;5983071;29;20030;-76
2023/05/18 16:27:24;;;;;;;7.88;3.67;;;18.60;53.30;;;;;;5996564;29;20034;-74
2023/05/18 16:30:32;;;;;;;12.18;3.83;;;18.80;53.30;;;;;;5982663;29;20102;-76